sensor_id;sensor_type;location;lat;lon;timestamp;pressure;altitude;pressure_sealevel;temperature;humidity
74778;BME280;63298;53.164;8.610;2023-01-25T00:00:47;103991.00;;;2.23;74.17
74778;BME280;63298;53.164;8.610;2023-01-25T00:03:13;103991.25;;;2.20;74.11
74778;BME280;63298;53.164;8.610;2023-01-25T00:05:38;103986.66;;;2.20;74.61
74778;BME280;63298;53.164;8.610;2023-01-25T00:08:04;103988.50;;;2.20;74.36
74778;BME280;63298;53.164;8.610;2023-01-25T00:10:30;103983.06;;;2.20;74.35
74778;BME280;63298;53.164;8.610;2023-01-25T00:12:55;103985.69;;;2.21;74.48
74778;BME280;63298;53.164;8.610;2023-01-25T00:15:21;103975.78;;;2.20;73.79
74778;BME280;63298;53.164;8.610;2023-01-25T00:17:46;103974.91;;;2.20;74.13
74778;BME280;63298;53.164;8.610;2023-01-25T00:20:12;103976.84;;;2.17;74.31
74778;BME280;63298;53.164;8.610;2023-01-25T00:22:37;103976.19;;;2.14;74.57
74778;BME280;63298;53.164;8.610;2023-01-25T00:25:03;103980.09;;;2.10;74.22
74778;BME280;63298;53.164;8.610;2023-01-25T00:27:28;103972.16;;;2.07;74.23
74778;BME280;63298;53.164;8.610;2023-01-25T00:29:53;103967.69;;;2.06;74.17
74778;BME280;63298;53.164;8.610;2023-01-25T00:34:48;103959.69;;;2.03;74.71
74778;BME280;63298;53.164;8.610;2023-01-25T00:37:22;103959.69;;;2.03;74.04
74778;BME280;63298;53.164;8.610;2023-01-25T00:39:49;103969.44;;;2.07;74.25
74778;BME280;63298;53.164;8.610;2023-01-25T00:42:15;103963.31;;;2.03;74.09
74778;BME280;63298;53.164;8.610;2023-01-25T00:44:41;103957.19;;;2.00;74.31
74778;BME280;63298;53.164;8.610;2023-01-25T00:47:11;103965.16;;;2.03;74.59
74778;BME280;63298;53.164;8.610;2023-01-25T00:49:37;103966.81;;;2.05;74.31
74778;BME280;63298;53.164;8.610;2023-01-25T00:52:04;103963.31;;;2.03;74.16
74778;BME280;63298;53.164;8.610;2023-01-25T00:54:29;103962.88;;;1.97;73.75
74778;BME280;63298;53.164;8.610;2023-01-25T00:56:54;103953.03;;;1.94;73.91
74778;BME280;63298;53.164;8.610;2023-01-25T00:59:20;103952.38;;;1.91;74.44
74778;BME280;63298;53.164;8.610;2023-01-25T01:01:45;103949.56;;;1.92;74.67
74778;BME280;63298;53.164;8.610;2023-01-25T01:04:10;103941.41;;;1.92;nan
74778;BME280;63298;53.164;8.610;2023-01-25T01:06:37;103954.69;;;1.97;74.63
74778;BME280;63298;53.164;8.610;2023-01-25T01:09:04;103944.69;;;1.97;74.29
74778;BME280;63298;53.164;8.610;2023-01-25T01:11:29;103950.88;;;1.99;74.50
74778;BME280;63298;53.164;8.610;2023-01-25T01:13:56;103942.50;;;2.02;73.87
74778;BME280;63298;53.164;8.610;2023-01-25T01:16:21;103941.09;;;2.09;74.36
74778;BME280;63298;53.164;8.610;2023-01-25T01:18:47;103940.88;;;2.12;74.28
74778;BME280;63298;53.164;8.610;2023-01-25T01:21:12;103936.44;;;2.11;74.02
74778;BME280;63298;53.164;8.610;2023-01-25T01:23:38;103938.16;;;2.12;73.93
74778;BME280;63298;53.164;8.610;2023-01-25T01:26:06;103927.59;;;2.08;73.91
74778;BME280;63298;53.164;8.610;2023-01-25T01:28:33;103927.59;;;2.08;74.07
74778;BME280;63298;53.164;8.610;2023-01-25T01:31:19;103922.28;;;2.06;74.08
74778;BME280;63298;53.164;8.610;2023-01-25T01:33:50;103925.00;;;2.06;74.16
74778;BME280;63298;53.164;8.610;2023-01-25T01:36:16;103924.88;;;2.08;74.34
74778;BME280;63298;53.164;8.610;2023-01-25T01:38:42;103925.97;;;2.05;74.49
74778;BME280;63298;53.164;8.610;2023-01-25T01:41:09;103928.59;;;2.07;74.65
74778;BME280;63298;53.164;8.610;2023-01-25T01:43:34;103927.59;;;2.08;74.07
74778;BME280;63298;53.164;8.610;2023-01-25T01:46:02;103929.34;;;2.09;74.11
74778;BME280;63298;53.164;8.610;2023-01-25T01:48:45;103931.09;;;2.10;74.01
74778;BME280;63298;53.164;8.610;2023-01-25T01:51:19;103924.78;;;2.09;74.26
74778;BME280;63298;53.164;8.610;2023-01-25T01:53:50;103918.53;;;2.07;73.94
74778;BME280;63298;53.164;8.610;2023-01-25T01:56:22;103917.56;;;2.08;74.20
74778;BME280;63298;53.164;8.610;2023-01-25T01:58:52;103911.38;;;2.06;74.30
74778;BME280;63298;53.164;8.610;2023-01-25T02:01:19;103908.84;;;2.03;74.06
74778;BME280;63298;53.164;8.610;2023-01-25T02:03:45;103897.09;;;2.03;74.06
74778;BME280;63298;53.164;8.610;2023-01-25T02:06:27;103896.34;;;2.01;73.84
74778;BME280;63298;53.164;8.610;2023-01-25T02:08:54;103892.53;;;2.03;73.99
74778;BME280;63298;53.164;8.610;2023-01-25T02:11:20;103887.94;;;2.04;74.12
74778;BME280;63298;53.164;8.610;2023-01-25T02:13:47;103896.91;;;2.06;74.38
74778;BME280;63298;53.164;8.610;2023-01-25T02:16:15;103891.44;;;2.06;74.44
74778;BME280;63298;53.164;8.610;2023-01-25T02:18:40;103879.69;;;2.05;73.97
74778;BME280;63298;53.164;8.610;2023-01-25T02:21:06;103881.44;;;2.06;74.37
74778;BME280;63298;53.164;8.610;2023-01-25T02:26:14;103881.53;;;2.05;73.93
74778;BME280;63298;53.164;8.610;2023-01-25T02:29:05;103871.53;;;2.05;74.20
74778;BME280;63298;53.164;8.610;2023-01-25T02:31:31;103860.72;;;2.04;74.73
74778;BME280;63298;53.164;8.610;2023-01-25T02:33:56;103856.25;;;2.03;74.25
74778;BME280;63298;53.164;8.610;2023-01-25T02:36:30;103860.94;;;2.01;73.95
74778;BME280;63298;53.164;8.610;2023-01-25T02:39:00;103863.53;;;2.02;74.51
74778;BME280;63298;53.164;8.610;2023-01-25T02:43:54;103861.50;;;2.06;74.35
74778;BME280;63298;53.164;8.610;2023-01-25T02:46:34;103854.41;;;2.03;74.47
74778;BME280;63298;53.164;8.610;2023-01-25T02:49:01;103845.50;;;2.01;74.57
74778;BME280;63298;53.164;8.610;2023-01-25T02:51:30;103851.13;;;1.98;74.21
74778;BME280;63298;53.164;8.610;2023-01-25T02:53:56;103857.59;;;1.97;74.03
74778;BME280;63298;53.164;8.610;2023-01-25T02:56:23;103854.72;;;1.99;74.50
74778;BME280;63298;53.164;8.610;2023-01-25T02:58:51;103851.25;;;1.97;74.72
74778;BME280;63298;53.164;8.610;2023-01-25T03:01:17;103843.84;;;1.99;74.69
74778;BME280;63298;53.164;8.610;2023-01-25T03:03:42;103852.78;;;2.01;74.20
74778;BME280;63298;53.164;8.610;2023-01-25T03:06:08;103848.09;;;2.03;74.17
74778;BME280;63298;53.164;8.610;2023-01-25T03:08:34;103846.38;;;2.02;74.81
74778;BME280;63298;53.164;8.610;2023-01-25T03:11:00;103840.16;;;2.00;74.66
74778;BME280;63298;53.164;8.610;2023-01-25T03:13:26;103846.47;;;2.00;74.31
74778;BME280;63298;53.164;8.610;2023-01-25T03:15:57;103846.56;;;1.99;74.69
74778;BME280;63298;53.164;8.610;2023-01-25T03:18:23;103834.81;;;1.98;74.03
74778;BME280;63298;53.164;8.610;2023-01-25T03:20:51;103826.63;;;1.98;74.38
74778;BME280;63298;53.164;8.610;2023-01-25T03:23:16;103826.75;;;1.97;74.53
74778;BME280;63298;53.164;8.610;2023-01-25T03:25:41;103830.47;;;1.96;74.38
74778;BME280;63298;53.164;8.610;2023-01-25T03:28:07;103835.34;;;1.91;74.03
74778;BME280;63298;53.164;8.610;2023-01-25T03:30:33;103830.09;;;1.88;75.16
74778;BME280;63298;53.164;8.610;2023-01-25T03:32:59;103817.59;;;1.85;74.57
74778;BME280;63298;53.164;8.610;2023-01-25T03:35:25;103824.78;;;1.86;74.54
74778;BME280;63298;53.164;8.610;2023-01-25T03:37:50;103824.00;;;1.84;74.06
74778;BME280;63298;53.164;8.610;2023-01-25T03:40:15;103829.53;;;1.83;74.86
74778;BME280;63298;53.164;8.610;2023-01-25T03:42:41;103819.53;;;1.83;74.65
74778;BME280;63298;53.164;8.610;2023-01-25T03:45:06;103818.00;;;1.79;74.96
74778;BME280;63298;53.164;8.610;2023-01-25T03:47:32;103815.28;;;1.79;74.54
74778;BME280;63298;53.164;8.610;2023-01-25T03:49:57;103814.31;;;1.80;74.47
74778;BME280;63298;53.164;8.610;2023-01-25T03:52:22;103814.53;;;1.77;74.63
74778;BME280;63298;53.164;8.610;2023-01-25T03:54:48;103812.78;;;1.76;74.36
74778;BME280;63298;53.164;8.610;2023-01-25T03:57:13;103814.31;;;1.80;74.89
74778;BME280;63298;53.164;8.610;2023-01-25T03:59:39;103804.31;;;1.81;74.32
74778;BME280;63298;53.164;8.610;2023-01-25T04:02:04;103801.50;;;1.82;74.55
74778;BME280;63298;53.164;8.610;2023-01-25T04:04:29;103802.47;;;1.81;74.63
74778;BME280;63298;53.164;8.610;2023-01-25T04:06:55;103794.41;;;1.80;74.73
74778;BME280;63298;53.164;8.610;2023-01-25T04:09:20;103793.31;;;1.82;74.62
74778;BME280;63298;53.164;8.610;2023-01-25T04:11:48;103797.91;;;1.82;74.58
74778;BME280;63298;53.164;8.610;2023-01-25T04:14:14;103797.03;;;1.81;75.22
74778;BME280;63298;53.164;8.610;2023-01-25T04:16:39;103798.09;;;1.79;74.99
74778;BME280;63298;53.164;8.610;2023-01-25T04:19:05;103794.63;;;1.77;74.40
74778;BME280;63298;53.164;8.610;2023-01-25T04:21:30;103794.41;;;1.80;75.08
74778;BME280;63298;53.164;8.610;2023-01-25T04:23:55;103791.56;;;1.81;74.41
74778;BME280;63298;53.164;8.610;2023-01-25T04:26:21;103794.06;;;1.84;74.65
74778;BME280;63298;53.164;8.610;2023-01-25T04:28:46;103793.19;;;1.84;74.59
74778;BME280;63298;53.164;8.610;2023-01-25T04:31:11;103796.06;;;1.82;74.45
74778;BME280;63298;53.164;8.610;2023-01-25T04:33:37;103783.41;;;1.81;74.52
74778;BME280;63298;53.164;8.610;2023-01-25T04:36:02;103787.09;;;1.80;74.26
74778;BME280;63298;53.164;8.610;2023-01-25T04:38:27;103776.44;;;1.77;74.35
74778;BME280;63298;53.164;8.610;2023-01-25T04:40:53;103776.44;;;1.77;74.83
74778;BME280;63298;53.164;8.610;2023-01-25T04:43:19;103781.13;;;1.75;74.63
74778;BME280;63298;53.164;8.610;2023-01-25T04:45:45;103772.63;;;1.80;74.47
74778;BME280;63298;53.164;8.610;2023-01-25T04:48:11;103768.06;;;1.80;74.45
74778;BME280;63298;53.164;8.610;2023-01-25T04:50:38;103761.66;;;1.81;74.88
74778;BME280;63298;53.164;8.610;2023-01-25T04:53:05;103763.41;;;1.82;74.69
74778;BME280;63298;53.164;8.610;2023-01-25T04:55:31;103764.38;;;1.81;74.35
74778;BME280;63298;53.164;8.610;2023-01-25T04:57:56;103764.38;;;1.81;74.29
74778;BME280;63298;53.164;8.610;2023-01-25T05:00:21;103764.69;;;1.77;74.63
74778;BME280;63298;53.164;8.610;2023-01-25T05:02:47;103774.69;;;1.76;74.61
74778;BME280;63298;53.164;8.610;2023-01-25T05:05:12;103767.50;;;1.75;74.51
74778;BME280;63298;53.164;8.610;2023-01-25T05:07:38;103769.25;;;1.76;74.37
74778;BME280;63298;53.164;8.610;2023-01-25T05:10:04;103761.28;;;1.73;74.17
74778;BME280;63298;53.164;8.610;2023-01-25T05:12:30;103759.66;;;1.70;74.90
74778;BME280;63298;53.164;8.610;2023-01-25T05:14:55;103764.34;;;1.68;74.69
74778;BME280;63298;53.164;8.610;2023-01-25T05:17:20;103759.22;;;1.64;74.66
74778;BME280;63298;53.164;8.610;2023-01-25T05:19:46;103754.56;;;1.66;74.89
74778;BME280;63298;53.164;8.610;2023-01-25T05:22:13;103750.72;;;1.68;74.47
74778;BME280;63298;53.164;8.610;2023-01-25T05:24:39;103755.97;;;1.71;74.38
74778;BME280;63298;53.164;8.610;2023-01-25T05:27:04;103752.47;;;1.69;75.20
74778;BME280;63298;53.164;8.610;2023-01-25T05:29:40;103753.69;;;1.65;74.52
74778;BME280;63298;53.164;8.610;2023-01-25T05:32:12;103745.53;;;1.65;74.28
74778;BME280;63298;53.164;8.610;2023-01-25T05:34:38;103750.09;;;1.65;74.83
74778;BME280;63298;53.164;8.610;2023-01-25T05:37:05;103753.78;;;1.64;74.49
74778;BME280;63298;53.164;8.610;2023-01-25T05:39:31;103747.47;;;1.63;74.60
74778;BME280;63298;53.164;8.610;2023-01-25T05:41:56;103734.63;;;1.65;74.38
74778;BME280;63298;53.164;8.610;2023-01-25T05:44:22;103732.78;;;1.66;74.39
74778;BME280;63298;53.164;8.610;2023-01-25T05:46:47;103744.53;;;1.66;74.96
74778;BME280;63298;53.164;8.610;2023-01-25T05:49:13;103738.44;;;1.63;75.00
74778;BME280;63298;53.164;8.610;2023-01-25T05:51:40;103743.13;;;1.61;74.38
74778;BME280;63298;53.164;8.610;2023-01-25T05:54:06;103745.06;;;1.59;74.55
74778;BME280;63298;53.164;8.610;2023-01-25T05:56:33;103753.22;;;1.59;74.64
74778;BME280;63298;53.164;8.610;2023-01-25T05:59:00;103752.03;;;1.63;74.44
74778;BME280;63298;53.164;8.610;2023-01-25T06:01:31;103744.66;;;1.65;75.00
74778;BME280;63298;53.164;8.610;2023-01-25T06:03:57;103741.81;;;1.66;74.47
74778;BME280;63298;53.164;8.610;2023-01-25T06:06:23;103737.25;;;1.67;74.66
74778;BME280;63298;53.164;8.610;2023-01-25T06:08:48;103732.00;;;1.64;74.54
74778;BME280;63298;53.164;8.610;2023-01-25T06:11:23;103734.19;;;1.59;75.37
74778;BME280;63298;53.164;8.610;2023-01-25T06:13:49;103734.50;;;1.54;74.72
74778;BME280;63298;53.164;8.610;2023-01-25T06:16:16;103733.09;;;1.49;75.17
74778;BME280;63298;53.164;8.610;2023-01-25T06:18:42;103732.53;;;1.44;75.44
74778;BME280;63298;53.164;8.610;2023-01-25T06:21:08;103733.53;;;1.43;74.91
74778;BME280;63298;53.164;8.610;2023-01-25T06:23:33;103734.38;;;1.43;75.02
74778;BME280;63298;53.164;8.610;2023-01-25T06:26:00;103733.53;;;1.43;75.23
74778;BME280;63298;53.164;8.610;2023-01-25T06:28:29;103732.44;;;1.45;75.48
74778;BME280;63298;53.164;8.610;2023-01-25T06:30:55;103735.06;;;1.47;75.20
74778;BME280;63298;53.164;8.610;2023-01-25T06:33:20;103733.31;;;1.46;75.39
74778;BME280;63298;53.164;8.610;2023-01-25T06:35:45;103728.84;;;1.45;75.71
74778;BME280;63298;53.164;8.610;2023-01-25T06:38:10;103730.50;;;1.47;75.21
74778;BME280;63298;53.164;8.610;2023-01-25T06:40:36;103730.28;;;1.50;75.06
74778;BME280;63298;53.164;8.610;2023-01-25T06:43:05;103741.69;;;1.55;75.21
74778;BME280;63298;53.164;8.610;2023-01-25T06:45:31;103742.56;;;1.56;74.62
74778;BME280;63298;53.164;8.610;2023-01-25T06:47:56;103741.78;;;1.54;74.99
74778;BME280;63298;53.164;8.610;2023-01-25T06:50:21;103748.00;;;1.56;74.61
74778;BME280;63298;53.164;8.610;2023-01-25T06:52:51;103748.00;;;1.56;74.99
74778;BME280;63298;53.164;8.610;2023-01-25T06:55:17;103740.72;;;1.56;74.75
74778;BME280;63298;53.164;8.610;2023-01-25T06:57:42;103742.34;;;1.59;74.49
74778;BME280;63298;53.164;8.610;2023-01-25T07:00:08;103738.75;;;1.58;74.86
74778;BME280;63298;53.164;8.610;2023-01-25T07:02:35;103737.13;;;1.56;75.15
74778;BME280;63298;53.164;8.610;2023-01-25T07:05:00;103723.63;;;1.54;74.77
74778;BME280;63298;53.164;8.610;2023-01-25T07:07:26;103721.03;;;1.53;74.74
74778;BME280;63298;53.164;8.610;2023-01-25T07:09:51;103722.66;;;1.55;74.91
74778;BME280;63298;53.164;8.610;2023-01-25T07:12:16;103711.56;;;1.58;74.88
74778;BME280;63298;53.164;8.610;2023-01-25T07:14:41;103710.56;;;1.59;74.54
74778;BME280;63298;53.164;8.610;2023-01-25T07:17:07;103697.22;;;1.56;74.60
74778;BME280;63298;53.164;8.610;2023-01-25T07:19:32;103701.66;;;1.57;75.19
74778;BME280;63298;53.164;8.610;2023-01-25T07:21:57;103701.78;;;1.56;74.69
74778;BME280;63298;53.164;8.610;2023-01-25T07:24:23;103699.81;;;1.58;75.08
74778;BME280;63298;53.164;8.610;2023-01-25T07:26:48;103705.47;;;1.55;75.19
74778;BME280;63298;53.164;8.610;2023-01-25T07:29:14;103702.00;;;1.53;74.54
74778;BME280;63298;53.164;8.610;2023-01-25T07:31:41;103709.28;;;1.52;74.70
74778;BME280;63298;53.164;8.610;2023-01-25T07:34:08;103694.91;;;1.50;75.06
74778;BME280;63298;53.164;8.610;2023-01-25T07:36:34;103695.88;;;1.49;74.81
74778;BME280;63298;53.164;8.610;2023-01-25T07:38:59;103696.00;;;1.48;75.10
74778;BME280;63298;53.164;8.610;2023-01-25T07:41:26;103702.63;;;1.44;74.84
74778;BME280;63298;53.164;8.610;2023-01-25T07:43:52;103700.03;;;1.42;75.26
74778;BME280;63298;53.164;8.610;2023-01-25T07:46:17;103699.25;;;1.40;74.82
74778;BME280;63298;53.164;8.610;2023-01-25T07:48:51;103693.34;;;1.34;75.21
74778;BME280;63298;53.164;8.610;2023-01-25T07:51:22;103690.63;;;1.34;75.46
74778;BME280;63298;53.164;8.610;2023-01-25T07:53:49;103691.41;;;1.36;75.58
74778;BME280;63298;53.164;8.610;2023-01-25T07:56:17;103689.47;;;1.38;74.94
74778;BME280;63298;53.164;8.610;2023-01-25T07:58:42;103683.25;;;1.36;75.37
74778;BME280;63298;53.164;8.610;2023-01-25T08:01:12;103687.72;;;1.37;74.83
74778;BME280;63298;53.164;8.610;2023-01-25T08:03:38;103687.41;;;1.41;74.85
74778;BME280;63298;53.164;8.610;2023-01-25T08:06:03;103673.72;;;1.43;75.36
74778;BME280;63298;53.164;8.610;2023-01-25T08:08:30;103672.59;;;1.45;75.12
74778;BME280;63298;53.164;8.610;2023-01-25T08:10:56;103677.63;;;1.51;74.98
74778;BME280;63298;53.164;8.610;2023-01-25T08:13:21;103685.00;;;1.49;74.99
74778;BME280;63298;53.164;8.610;2023-01-25T08:15:52;103687.31;;;1.43;74.54
74778;BME280;63298;53.164;8.610;2023-01-25T08:18:18;103681.31;;;1.38;74.76
74778;BME280;63298;53.164;8.610;2023-01-25T08:20:43;103682.19;;;1.38;74.89
74778;BME280;63298;53.164;8.610;2023-01-25T08:23:08;103683.03;;;1.39;75.17
74778;BME280;63298;53.164;8.610;2023-01-25T08:25:34;103681.09;;;1.41;75.12
74778;BME280;63298;53.164;8.610;2023-01-25T08:27:59;103673.72;;;1.43;74.94
74778;BME280;63298;53.164;8.610;2023-01-25T08:30:24;103670.75;;;1.46;75.34
74778;BME280;63298;53.164;8.610;2023-01-25T08:32:49;103663.38;;;1.48;75.25
74778;BME280;63298;53.164;8.610;2023-01-25T08:35:15;103663.47;;;1.46;75.02
74778;BME280;63298;53.164;8.610;2023-01-25T08:37:40;103661.09;;;1.42;75.08
74778;BME280;63298;53.164;8.610;2023-01-25T08:40:06;103662.06;;;1.41;74.58
74778;BME280;63298;53.164;8.610;2023-01-25T08:42:31;103653.88;;;1.41;74.97
74778;BME280;63298;53.164;8.610;2023-01-25T08:44:56;103652.56;;;1.34;74.97
74778;BME280;63298;53.164;8.610;2023-01-25T08:47:22;103637.25;;;1.33;75.08
74778;BME280;63298;53.164;8.610;2023-01-25T08:49:47;103639.97;;;1.33;75.16
74778;BME280;63298;53.164;8.610;2023-01-25T08:52:12;103645.19;;;1.36;75.08
74778;BME280;63298;53.164;8.610;2023-01-25T08:54:38;103642.47;;;1.36;75.25
74778;BME280;63298;53.164;8.610;2023-01-25T08:57:03;103637.81;;;1.38;75.45
74778;BME280;63298;53.164;8.610;2023-01-25T08:59:28;103630.19;;;1.43;74.91
74778;BME280;63298;53.164;8.610;2023-01-25T09:01:53;103621.72;;;1.47;75.38
74778;BME280;63298;53.164;8.610;2023-01-25T09:04:19;103626.38;;;1.45;75.17
74778;BME280;63298;53.164;8.610;2023-01-25T09:06:44;103627.25;;;1.46;74.92
74778;BME280;63298;53.164;8.610;2023-01-25T09:09:11;103621.81;;;1.46;75.06
74778;BME280;63298;53.164;8.610;2023-01-25T09:11:39;103614.41;;;1.48;75.24
74778;BME280;63298;53.164;8.610;2023-01-25T09:14:04;103612.44;;;1.50;74.98
74778;BME280;63298;53.164;8.610;2023-01-25T09:16:30;103613.31;;;1.50;74.68
74778;BME280;63298;53.164;8.610;2023-01-25T09:18:59;103615.16;;;1.50;74.78
74778;BME280;63298;53.164;8.610;2023-01-25T09:21:25;103607.88;;;1.50;74.98
74778;BME280;63298;53.164;8.610;2023-01-25T09:23:52;103616.13;;;1.49;75.02
74778;BME280;63298;53.164;8.610;2023-01-25T09:26:17;103610.38;;;1.53;74.84
74778;BME280;63298;53.164;8.610;2023-01-25T09:28:48;103605.78;;;1.54;74.74
74778;BME280;63298;53.164;8.610;2023-01-25T09:31:15;103608.53;;;1.54;74.53
74778;BME280;63298;53.164;8.610;2023-01-25T09:33:41;103605.38;;;1.47;74.60
74778;BME280;63298;53.164;8.610;2023-01-25T09:36:06;103598.31;;;1.45;74.55
74778;BME280;63298;53.164;8.610;2023-01-25T09:38:32;103597.66;;;1.41;74.60
74778;BME280;63298;53.164;8.610;2023-01-25T09:41:13;103592.00;;;1.32;75.00
74778;BME280;63298;53.164;8.610;2023-01-25T09:43:59;103599.94;;;1.35;75.00
74778;BME280;63298;53.164;8.610;2023-01-25T09:46:45;103597.34;;;1.33;75.05
74778;BME280;63298;53.164;8.610;2023-01-25T09:54:38;103595.06;;;1.27;74.72
74778;BME280;63298;53.164;8.610;2023-01-25T09:57:03;103590.59;;;1.26;75.12
74778;BME280;63298;53.164;8.610;2023-01-25T09:59:33;103579.63;;;1.27;75.30
74778;BME280;63298;53.164;8.610;2023-01-25T10:05:03;103581.22;;;1.30;74.91
74778;BME280;63298;53.164;8.610;2023-01-25T10:10:12;103577.63;;;1.29;75.02
74778;BME280;63298;53.164;8.610;2023-01-25T10:12:40;103576.56;;;1.32;74.99
74778;BME280;63298;53.164;8.610;2023-01-25T10:15:20;103561.31;;;1.29;75.02
74778;BME280;63298;53.164;8.610;2023-01-25T10:17:52;103568.41;;;1.32;74.87
74778;BME280;63298;53.164;8.610;2023-01-25T10:20:39;103571.66;;;1.37;74.49
74778;BME280;63298;53.164;8.610;2023-01-25T10:26:25;103556.78;;;1.43;74.80
74778;BME280;63298;53.164;8.610;2023-01-25T10:28:54;103547.16;;;1.50;74.44
74778;BME280;63298;53.164;8.610;2023-01-25T10:31:28;103531.28;;;1.44;74.35
74778;BME280;63298;53.164;8.610;2023-01-25T10:33:56;103539.00;;;1.50;74.56
74778;BME280;63298;53.164;8.610;2023-01-25T10:36:26;103539.25;;;1.47;75.17
74778;BME280;63298;53.164;8.610;2023-01-25T10:38:54;103536.28;;;1.50;74.49
74778;BME280;63298;53.164;8.610;2023-01-25T10:43:54;103533.47;;;1.51;74.35
74778;BME280;63298;53.164;8.610;2023-01-25T10:46:24;103530.41;;;1.43;74.84
74778;BME280;63298;53.164;8.610;2023-01-25T10:48:50;103520.09;;;1.36;75.19
74778;BME280;63298;53.164;8.610;2023-01-25T10:51:32;103517.53;;;1.21;75.00
74778;BME280;63298;53.164;8.610;2023-01-25T10:54:02;103520.34;;;1.20;75.16
74778;BME280;63298;53.164;8.610;2023-01-25T10:56:28;103516.97;;;1.16;75.38
74778;BME280;63298;53.164;8.610;2023-01-25T10:59:23;103506.00;;;1.18;75.09
74778;BME280;63298;53.164;8.610;2023-01-25T11:01:49;103481.66;;;1.16;75.52
74778;BME280;63298;53.164;8.610;2023-01-25T11:04:34;103486.66;;;1.22;75.25
74778;BME280;63298;53.164;8.610;2023-01-25T11:07:02;103484.91;;;1.21;75.74
74778;BME280;63298;53.164;8.610;2023-01-25T11:11:59;103472.53;;;1.17;75.29
74778;BME280;63298;53.164;8.610;2023-01-25T11:14:28;103475.63;;;1.24;75.44
74778;BME280;63298;53.164;8.610;2023-01-25T11:16:55;103471.84;;;1.26;75.71
74778;BME280;63298;53.164;8.610;2023-01-25T11:19:35;103466.94;;;1.19;75.68
74778;BME280;63298;53.164;8.610;2023-01-25T11:22:03;103464.38;;;1.17;75.38
74778;BME280;63298;53.164;8.610;2023-01-25T11:24:34;103463.50;;;1.17;75.87
74778;BME280;63298;53.164;8.610;2023-01-25T11:29:37;103436.31;;;1.17;75.71
74778;BME280;63298;53.164;8.610;2023-01-25T11:32:21;103432.94;;;1.13;75.69
74778;BME280;63298;53.164;8.610;2023-01-25T11:34:49;103425.09;;;1.09;75.60
74778;BME280;63298;53.164;8.610;2023-01-25T11:40:16;103431.75;;;1.17;76.16
74778;BME280;63298;53.164;8.610;2023-01-25T11:51:40;103395.09;;;1.10;76.06
74778;BME280;63298;53.164;8.610;2023-01-25T11:56:59;103375.78;;;1.02;75.59
74778;BME280;63298;53.164;8.610;2023-01-25T11:59:49;103374.13;;;1.12;75.52
74778;BME280;63298;53.164;8.610;2023-01-25T12:02:48;103368.34;;;1.17;76.36
74778;BME280;63298;53.164;8.610;2023-01-25T12:08:22;103359.75;;;1.23;75.17
74778;BME280;63298;53.164;8.610;2023-01-25T12:14:24;103347.75;;;1.25;75.27
74778;BME280;63298;53.164;8.610;2023-01-25T12:22:49;103326.19;;;1.35;75.73
74778;BME280;63298;53.164;8.610;2023-01-25T12:25:33;103322.50;;;1.36;75.21
74778;BME280;63298;53.164;8.610;2023-01-25T12:28:24;103318.91;;;1.36;75.54
74778;BME280;63298;53.164;8.610;2023-01-25T12:30:55;103306.00;;;1.26;75.51
74778;BME280;63298;53.164;8.610;2023-01-25T12:33:37;103304.00;;;1.17;74.95
74778;BME280;63298;53.164;8.610;2023-01-25T12:36:14;103298.66;;;1.16;75.16
74778;BME280;63298;53.164;8.610;2023-01-25T12:39:32;103292.25;;;1.17;75.52
74778;BME280;63298;53.164;8.610;2023-01-25T12:41:53;103292.06;;;1.07;75.06
74778;BME280;63298;53.164;8.610;2023-01-25T12:52:15;103272.88;;;0.98;75.42
74778;BME280;63298;53.164;8.610;2023-01-25T12:54:44;103266.66;;;0.96;75.52
74778;BME280;63298;53.164;8.610;2023-01-25T12:57:24;103254.47;;;1.01;75.65
74778;BME280;63298;53.164;8.610;2023-01-25T13:00:06;103249.81;;;1.03;74.49
74778;BME280;63298;53.164;8.610;2023-01-25T13:05:47;103242.03;;;1.10;75.17
74778;BME280;63298;53.164;8.610;2023-01-25T13:08:40;103241.84;;;1.13;75.21
74778;BME280;63298;53.164;8.610;2023-01-25T13:11:43;103236.25;;;1.14;75.44
74778;BME280;63298;53.164;8.610;2023-01-25T13:16:51;103222.91;;;1.11;74.61
74778;BME280;63298;53.164;8.610;2023-01-25T13:19:18;103225.28;;;1.16;74.52
74778;BME280;63298;53.164;8.610;2023-01-25T13:21:44;103224.06;;;1.20;74.84
74778;BME280;63298;53.164;8.610;2023-01-25T13:24:17;103224.06;;;1.20;74.57
74778;BME280;63298;53.164;8.610;2023-01-25T13:32:03;103199.38;;;1.23;74.74
74778;BME280;63298;53.164;8.610;2023-01-25T13:37:01;103198.34;;;1.24;74.65
74778;BME280;63298;53.164;8.610;2023-01-25T13:44:35;103179.97;;;1.27;75.29
74778;BME280;63298;53.164;8.610;2023-01-25T13:47:03;103171.69;;;1.18;74.96
74778;BME280;63298;53.164;8.610;2023-01-25T13:49:33;103171.44;;;1.21;75.29
74778;BME280;63298;53.164;8.610;2023-01-25T13:52:02;103174.03;;;1.22;74.52
74778;BME280;63298;53.164;8.610;2023-01-25T13:54:28;103169.97;;;1.28;75.39
74778;BME280;63298;53.164;8.610;2023-01-25T13:57:11;103179.97;;;1.27;74.82
74778;BME280;63298;53.164;8.610;2023-01-25T13:59:37;103175.75;;;1.23;74.42
74778;BME280;63298;53.164;8.610;2023-01-25T14:02:02;103177.97;;;1.18;74.75
74778;BME280;63298;53.164;8.610;2023-01-25T14:04:30;103169.19;;;1.15;75.00
74778;BME280;63298;53.164;8.610;2023-01-25T14:06:59;103167.69;;;1.11;74.91
74778;BME280;63298;53.164;8.610;2023-01-25T14:09:28;103168.56;;;1.11;74.38
74778;BME280;63298;53.164;8.610;2023-01-25T14:11:54;103165.72;;;1.13;75.20
74778;BME280;63298;53.164;8.610;2023-01-25T14:14:47;103162.97;;;1.02;75.21
74778;BME280;63298;53.164;8.610;2023-01-25T14:17:18;103148.75;;;0.98;74.84
74778;BME280;63298;53.164;8.610;2023-01-25T14:19:46;103159.78;;;1.08;75.30
74778;BME280;63298;53.164;8.610;2023-01-25T14:25:10;103146.81;;;1.11;74.64
74778;BME280;63298;53.164;8.610;2023-01-25T14:27:42;103127.63;;;1.02;75.42
74778;BME280;63298;53.164;8.610;2023-01-25T14:30:23;103141.13;;;1.03;75.12
74778;BME280;63298;53.164;8.610;2023-01-25T14:32:50;103134.41;;;0.96;74.85